createdAt,value
2022-12-27T00:01:34.245Z,5.27
2022-12-27T00:04:04.577Z,4.20
2022-12-27T00:06:34.729Z,3.87
2022-12-27T00:09:06.825Z,4.33
2022-12-27T00:11:39.699Z,5.50
2022-12-27T00:14:10.851Z,5.53
2022-12-27T00:16:41.891Z,5.27
2022-12-27T00:19:11.992Z,5.10
2022-12-27T00:21:42.135Z,4.50
2022-12-27T00:24:14.147Z,5.03
2022-12-27T00:26:46.912Z,3.80
2022-12-27T00:29:16.985Z,3.67
2022-12-27T00:31:47.359Z,3.10
2022-12-27T00:34:17.473Z,2.90
2022-12-27T00:36:47.664Z,2.93
2022-12-27T00:39:17.903Z,2.40
2022-12-27T00:41:50.662Z,2.30
2022-12-27T00:44:20.877Z,2.50
2022-12-27T00:46:50.969Z,2.13
2022-12-27T00:49:21.054Z,2.20
2022-12-27T00:51:51.242Z,1.90
2022-12-27T00:54:21.473Z,1.90
2022-12-27T00:56:55.395Z,1.67
2022-12-27T00:59:25.441Z,1.50
2022-12-27T01:01:55.936Z,1.97
2022-12-27T01:04:26.063Z,1.50
2022-12-27T01:06:56.269Z,1.67
2022-12-27T01:09:26.374Z,1.97
2022-12-27T01:11:59.166Z,1.30
2022-12-27T01:14:29.363Z,1.87
2022-12-27T01:16:59.609Z,1.67
2022-12-27T01:19:32.068Z,1.60
2022-12-27T01:22:04.830Z,2.10
2022-12-27T01:24:36.330Z,1.40
2022-12-27T01:27:09.000Z,1.70
2022-12-27T01:29:39.316Z,1.70
2022-12-27T01:32:09.670Z,1.83
2022-12-27T01:34:42.202Z,1.50
2022-12-27T01:37:12.390Z,1.50
2022-12-27T01:39:42.746Z,1.80
2022-12-27T01:42:34.433Z,1.87
2022-12-27T01:45:08.510Z,1.63
2022-12-27T01:47:52.120Z,1.77
2022-12-27T01:50:31.774Z,1.57
2022-12-27T01:53:14.923Z,1.50
2022-12-27T01:55:53.932Z,1.60
2022-12-27T01:58:35.627Z,1.97
2022-12-27T02:01:07.432Z,1.77
2022-12-27T02:03:42.729Z,1.57
2022-12-27T02:06:17.179Z,1.57
2022-12-27T02:08:57.872Z,1.83
2022-12-27T02:11:46.271Z,1.60
2022-12-27T02:14:28.563Z,1.60
2022-12-27T02:17:01.836Z,2.17
2022-12-27T02:19:45.730Z,1.43
2022-12-27T02:23:22.559Z,1.53
2022-12-27T02:26:38.679Z,1.50
2022-12-27T02:29:39.244Z,1.33
2022-12-27T02:32:16.425Z,1.80
2022-12-27T02:35:00.253Z,1.80
2022-12-27T02:37:36.778Z,1.30
2022-12-27T02:40:30.179Z,1.70
2022-12-27T02:43:13.845Z,1.50
2022-12-27T02:46:09.761Z,1.47
2022-12-27T02:48:52.418Z,1.13
2022-12-27T02:51:53.149Z,1.63
2022-12-27T02:54:48.063Z,1.27
2022-12-27T02:57:34.745Z,1.63
2022-12-27T03:00:36.042Z,1.60
2022-12-27T03:03:45.535Z,1.50
2022-12-27T03:06:58.792Z,1.40
2022-12-27T03:10:10.406Z,1.60
2022-12-27T03:13:13.780Z,1.27
2022-12-27T03:16:11.256Z,1.50
2022-12-27T03:19:09.970Z,1.70
2022-12-27T03:21:59.428Z,1.50
2022-12-27T03:24:47.900Z,1.63
2022-12-27T03:27:28.549Z,1.97
2022-12-27T03:30:23.958Z,1.20
2022-12-27T03:33:16.833Z,1.40
2022-12-27T03:36:11.957Z,1.53
2022-12-27T03:38:54.203Z,1.20
2022-12-27T03:41:43.514Z,1.23
2022-12-27T03:44:27.110Z,1.60
2022-12-27T03:46:58.782Z,1.60
2022-12-27T03:49:39.340Z,1.37
2022-12-27T03:52:20.876Z,1.60
2022-12-27T03:54:55.025Z,1.67
2022-12-27T03:57:29.263Z,1.30
2022-12-27T03:59:59.544Z,1.87
2022-12-27T04:02:29.818Z,1.50
2022-12-27T04:05:00.442Z,2.00
2022-12-27T04:07:33.154Z,1.90
2022-12-27T04:10:15.824Z,1.90
2022-12-27T04:12:58.636Z,2.93
2022-12-27T04:15:41.203Z,1.80
2022-12-27T04:18:23.727Z,1.97
2022-12-27T04:21:06.259Z,1.90
2022-12-27T04:23:51.382Z,1.90
2022-12-27T04:26:33.942Z,1.87
2022-12-27T04:29:16.437Z,1.90
2022-12-27T04:32:00.614Z,2.40
2022-12-27T04:34:42.878Z,1.90
2022-12-27T04:37:16.878Z,1.83
2022-12-27T04:40:12.517Z,1.67
2022-12-27T04:42:55.165Z,1.90
2022-12-27T04:45:38.626Z,1.67
2022-12-27T04:48:26.837Z,2.30
2022-12-27T04:51:09.449Z,1.73
2022-12-27T04:53:51.974Z,1.60
2022-12-27T04:56:24.681Z,1.80
2022-12-27T04:59:08.382Z,2.07
2022-12-27T05:01:52.130Z,1.70
2022-12-27T05:04:22.274Z,1.70
2022-12-27T05:06:52.575Z,1.70
2022-12-27T05:09:35.176Z,1.93
2022-12-27T05:12:26.873Z,2.10
2022-12-27T05:14:56.971Z,1.77
2022-12-27T05:17:27.186Z,2.07
2022-12-27T05:19:57.265Z,1.97
2022-12-27T05:22:39.842Z,2.40
2022-12-27T05:25:26.315Z,1.93
2022-12-27T05:27:59.030Z,1.60
2022-12-27T05:30:29.273Z,2.00
2022-12-27T05:33:00.308Z,1.50
2022-12-27T05:35:30.485Z,1.57
2022-12-27T05:38:00.914Z,1.70
2022-12-27T05:40:36.776Z,2.00
2022-12-27T05:43:09.722Z,2.33
2022-12-27T05:45:39.815Z,1.90
2022-12-27T05:48:10.012Z,1.77
2022-12-27T05:50:42.508Z,1.70
2022-12-27T05:53:14.611Z,1.63
2022-12-27T05:55:44.760Z,1.53
2022-12-27T05:58:17.435Z,1.80
2022-12-27T06:00:47.660Z,1.80
2022-12-27T06:03:17.829Z,2.33
2022-12-27T06:05:48.112Z,1.60
2022-12-27T06:08:18.358Z,2.03
2022-12-27T06:10:48.419Z,3.43
2022-12-27T06:13:23.448Z,3.10
2022-12-27T06:15:53.517Z,3.27
2022-12-27T06:18:23.664Z,4.03
2022-12-27T06:21:02.378Z,3.83
2022-12-27T06:23:32.531Z,2.97
2022-12-27T06:26:06.479Z,3.30
2022-12-27T06:28:39.583Z,3.97
2022-12-27T06:31:09.815Z,5.73
2022-12-27T06:33:40.070Z,4.20
2022-12-27T06:36:12.587Z,3.97
2022-12-27T06:38:42.914Z,5.17
2022-12-27T06:41:17.788Z,6.53
2022-12-27T06:43:50.969Z,4.97
2022-12-27T06:46:24.331Z,2.50
2022-12-27T06:48:55.186Z,2.03
2022-12-27T06:51:25.401Z,2.20
2022-12-27T06:53:55.828Z,2.10
2022-12-27T06:56:26.634Z,2.60
2022-12-27T06:58:59.632Z,2.63
2022-12-27T07:01:31.359Z,2.70
2022-12-27T07:04:03.660Z,3.33
2022-12-27T07:06:35.271Z,3.90
2022-12-27T07:09:06.649Z,2.30
2022-12-27T07:11:38.750Z,2.80
2022-12-27T07:14:12.642Z,2.83
2022-12-27T07:16:43.761Z,2.63
2022-12-27T07:19:14.231Z,3.83
2022-12-27T07:21:44.375Z,3.27
2022-12-27T07:24:14.641Z,4.27
2022-12-27T07:26:44.735Z,3.17
2022-12-27T07:29:17.528Z,3.10
2022-12-27T07:31:47.745Z,2.90
2022-12-27T07:34:18.751Z,3.40
2022-12-27T07:36:48.806Z,4.27
2022-12-27T07:39:18.906Z,8.30
2022-12-27T07:41:49.023Z,7.50
2022-12-27T07:44:21.742Z,4.93
2022-12-27T07:46:52.775Z,6.07
2022-12-27T07:49:22.940Z,4.80
2022-12-27T07:51:53.035Z,3.30
2022-12-27T07:54:23.268Z,2.80
2022-12-27T07:56:53.394Z,2.63
2022-12-27T07:59:27.567Z,2.03
2022-12-27T08:02:07.268Z,2.20
2022-12-27T08:04:40.358Z,2.80
2022-12-27T08:07:18.016Z,2.47
2022-12-27T08:09:50.911Z,2.30
2022-12-27T08:12:21.068Z,2.30
2022-12-27T08:14:53.989Z,5.30
2022-12-27T08:17:27.576Z,4.30
2022-12-27T08:19:59.965Z,6.07
2022-12-27T08:22:30.060Z,7.20
2022-12-27T08:25:02.242Z,7.30
2022-12-27T08:27:32.357Z,6.03
2022-12-27T08:30:05.179Z,3.57
2022-12-27T08:32:38.286Z,5.70
2022-12-27T08:35:50.359Z,5.20
2022-12-27T08:38:04.591Z,6.13
2022-12-27T08:40:34.714Z,6.07
2022-12-27T08:43:04.777Z,5.07
2022-12-27T08:45:37.733Z,2.80
2022-12-27T08:48:11.783Z,3.50
2022-12-27T08:50:42.102Z,3.13
2022-12-27T08:53:13.871Z,3.00
2022-12-27T08:55:44.003Z,2.87
2022-12-27T08:58:16.564Z,3.20
2022-12-27T09:00:49.474Z,2.73
2022-12-27T09:03:23.173Z,3.13
2022-12-27T09:05:53.366Z,3.90
2022-12-27T09:08:23.470Z,2.87
2022-12-27T09:10:53.593Z,2.57
2022-12-27T09:13:23.698Z,2.73
2022-12-27T09:15:56.403Z,2.30
2022-12-27T09:18:26.482Z,3.10
2022-12-27T09:20:56.558Z,2.40
2022-12-27T09:23:26.710Z,2.25
2022-12-27T09:25:56.779Z,1.92
2022-12-27T09:28:26.939Z,2.20
2022-12-27T09:30:59.615Z,2.17
2022-12-27T09:33:31.323Z,2.05
2022-12-27T09:36:06.061Z,2.17
2022-12-27T09:38:36.926Z,2.65
2022-12-27T09:41:19.402Z,2.60
2022-12-27T09:44:05.797Z,2.38
2022-12-27T09:46:46.925Z,2.85
2022-12-27T09:49:24.508Z,1.65
2022-12-27T09:52:02.377Z,1.92
2022-12-27T09:54:40.981Z,2.00
2022-12-27T09:57:24.355Z,1.65
2022-12-27T10:00:05.474Z,1.85
2022-12-27T10:02:38.483Z,2.00
2022-12-27T10:05:23.180Z,1.80
2022-12-27T10:08:13.321Z,1.95
2022-12-27T10:10:58.591Z,2.05
2022-12-27T10:13:49.691Z,1.80
2022-12-27T10:16:32.204Z,1.83
2022-12-27T10:19:27.251Z,1.90
2022-12-27T10:22:17.893Z,1.80
2022-12-27T10:24:56.519Z,1.50
2022-12-27T10:27:30.729Z,1.80
2022-12-27T10:30:03.372Z,1.77
2022-12-27T10:32:33.487Z,2.10
2022-12-27T10:35:09.790Z,2.05
2022-12-27T10:37:39.886Z,2.10
2022-12-27T10:40:19.195Z,1.95
2022-12-27T10:43:04.125Z,2.17
2022-12-27T10:45:39.646Z,1.52
2022-12-27T10:48:36.360Z,2.13
2022-12-27T10:51:20.613Z,1.90
2022-12-27T10:54:04.015Z,1.58
2022-12-27T10:56:39.478Z,1.40
2022-12-27T10:59:17.757Z,1.73
2022-12-27T11:01:52.243Z,1.52
2022-12-27T11:04:24.936Z,1.42
2022-12-27T11:07:21.505Z,1.42
2022-12-27T11:09:51.649Z,1.33
2022-12-27T11:12:25.550Z,1.25
2022-12-27T11:15:03.363Z,1.00
2022-12-27T11:17:40.963Z,1.48
2022-12-27T11:20:26.132Z,1.40
2022-12-27T11:23:03.529Z,1.58
2022-12-27T11:25:34.585Z,1.58
2022-12-27T11:28:08.503Z,1.63
2022-12-27T11:30:42.951Z,1.40
2022-12-27T11:33:27.177Z,1.48
2022-12-27T11:36:02.666Z,1.20
2022-12-27T11:38:40.245Z,1.80
2022-12-27T11:41:20.892Z,1.30
2022-12-27T11:44:04.863Z,1.48
2022-12-27T11:46:46.161Z,1.58
2022-12-27T11:49:25.556Z,1.52
2022-12-27T11:52:43.488Z,1.60
2022-12-27T11:56:02.350Z,1.55
2022-12-27T11:59:33.621Z,1.65
2022-12-27T12:02:49.168Z,1.50
2022-12-27T12:06:04.597Z,1.20
2022-12-27T12:09:21.117Z,1.85
2022-12-27T12:12:44.935Z,1.17
2022-12-27T12:15:47.504Z,1.70
2022-12-27T12:18:45.189Z,1.58
2022-12-27T12:21:29.632Z,1.43
2022-12-27T12:24:39.065Z,1.73
2022-12-27T12:28:02.481Z,1.70
2022-12-27T12:31:03.610Z,1.40
2022-12-27T12:34:03.578Z,1.40
2022-12-27T12:37:03.787Z,1.90
2022-12-27T12:40:09.691Z,1.60
2022-12-27T12:43:13.454Z,1.65
2022-12-27T12:46:32.334Z,1.77
2022-12-27T12:49:41.525Z,1.88
2022-12-27T12:52:37.567Z,2.03
2022-12-27T12:55:40.252Z,1.90
2022-12-27T12:58:29.006Z,1.65
2022-12-27T13:01:51.164Z,2.17
2022-12-27T13:05:12.495Z,1.52
2022-12-27T13:08:26.072Z,1.58
2022-12-27T13:11:36.386Z,1.80
2022-12-27T13:14:34.352Z,2.03
2022-12-27T13:17:21.960Z,1.98
2022-12-27T13:20:11.799Z,1.58
2022-12-27T13:23:01.444Z,1.90
2022-12-27T13:25:43.186Z,1.73
2022-12-27T13:28:37.697Z,1.75
2022-12-27T13:31:26.746Z,1.65
2022-12-27T13:34:23.182Z,1.92
2022-12-27T13:37:20.803Z,2.23
2022-12-27T13:40:40.598Z,2.17
2022-12-27T13:44:19.590Z,1.90
2022-12-27T13:47:29.748Z,2.07
2022-12-27T13:50:45.029Z,1.80
2022-12-27T13:54:08.756Z,2.17
2022-12-27T13:56:55.406Z,1.70
2022-12-27T14:00:18.632Z,1.67
2022-12-27T14:03:25.848Z,1.67
2022-12-27T14:06:38.133Z,2.13
2022-12-27T14:09:43.293Z,1.58
2022-12-27T14:12:54.317Z,1.77
2022-12-27T14:16:19.296Z,1.53
2022-12-27T14:19:22.553Z,1.70
2022-12-27T14:22:29.586Z,1.83
2022-12-27T14:25:53.522Z,1.67
2022-12-27T14:29:25.385Z,1.60
2022-12-27T14:33:15.289Z,1.60
2022-12-27T14:36:31.080Z,1.77
2022-12-27T14:39:51.345Z,1.70
2022-12-27T14:43:00.276Z,1.60
2022-12-27T14:46:22.650Z,1.90
2022-12-27T14:49:41.699Z,1.80
2022-12-27T14:53:03.365Z,1.57
2022-12-27T14:55:59.378Z,2.00
2022-12-27T14:59:21.282Z,1.60
2022-12-27T15:02:19.040Z,1.70
2022-12-27T15:05:28.678Z,1.60
2022-12-27T15:08:47.161Z,1.70
2022-12-27T15:11:59.505Z,1.53
2022-12-27T15:15:08.465Z,2.30
2022-12-27T15:18:17.672Z,1.47
2022-12-27T15:21:22.167Z,2.20
2022-12-27T15:23:57.879Z,2.03
2022-12-27T15:26:39.933Z,2.37
2022-12-27T15:29:52.889Z,2.00
2022-12-27T15:32:40.759Z,2.23
2022-12-27T15:35:39.734Z,1.90
2022-12-27T15:38:17.275Z,1.43
2022-12-27T15:41:25.270Z,1.50
2022-12-27T15:44:35.615Z,1.60
2022-12-27T15:48:02.736Z,1.50
2022-12-27T15:51:01.629Z,1.60
2022-12-27T15:54:37.106Z,2.47
2022-12-27T15:57:53.404Z,2.60
2022-12-27T16:00:34.196Z,2.87
2022-12-27T16:03:35.971Z,2.87
2022-12-27T16:06:10.516Z,2.70
2022-12-27T16:08:42.725Z,2.13
2022-12-27T16:11:15.768Z,1.77
2022-12-27T16:13:53.546Z,2.73
2022-12-27T16:16:57.092Z,3.20
2022-12-27T16:19:55.306Z,2.20
2022-12-27T16:22:41.707Z,2.83
2022-12-27T16:25:41.610Z,2.50
2022-12-27T16:28:24.421Z,2.77
2022-12-27T16:30:57.292Z,2.40
2022-12-27T16:33:42.645Z,2.83
2022-12-27T16:36:40.083Z,2.10
2022-12-27T16:40:13.711Z,2.60
2022-12-27T16:43:38.178Z,2.10
2022-12-27T16:46:29.583Z,3.10
2022-12-27T16:49:45.415Z,3.20
2022-12-27T16:52:52.537Z,2.50
2022-12-27T16:56:11.059Z,3.40
2022-12-27T16:58:42.630Z,2.27
2022-12-27T17:02:00.888Z,2.80
2022-12-27T17:04:58.516Z,2.90
2022-12-27T17:08:15.874Z,3.03
2022-12-27T17:11:26.784Z,4.90
2022-12-27T17:14:04.501Z,3.30
2022-12-27T17:16:45.174Z,3.13
2022-12-27T17:19:25.668Z,2.63
2022-12-27T17:22:04.001Z,2.50
2022-12-27T17:24:38.941Z,2.43
2022-12-27T17:27:30.652Z,2.97
2022-12-27T17:30:14.655Z,2.70
2022-12-27T17:33:27.254Z,2.40
2022-12-27T17:36:22.268Z,2.63
2022-12-27T17:39:09.315Z,2.63
2022-12-27T17:42:10.395Z,1.93
2022-12-27T17:45:02.792Z,2.10
2022-12-27T17:48:25.512Z,2.03
2022-12-27T17:51:03.684Z,2.00
2022-12-27T17:53:46.322Z,2.43
2022-12-27T17:56:37.853Z,2.47
2022-12-27T17:59:17.252Z,2.40
2022-12-27T18:01:53.401Z,2.47
2022-12-27T18:04:30.612Z,2.47
2022-12-27T18:07:06.059Z,2.60
2022-12-27T18:09:45.736Z,2.37
2022-12-27T18:12:23.240Z,2.20
2022-12-27T18:15:03.543Z,2.43
2022-12-27T18:17:40.203Z,2.43
2022-12-27T18:20:40.619Z,2.53
2022-12-27T18:23:20.519Z,2.70
2022-12-27T18:26:12.390Z,2.23
2022-12-27T18:28:44.409Z,2.70
2022-12-27T18:31:28.258Z,2.60
2022-12-27T18:34:03.443Z,3.30
2022-12-27T18:36:40.134Z,3.10
2022-12-27T18:39:24.304Z,2.77
2022-12-27T18:41:56.925Z,3.53
2022-12-27T18:44:32.679Z,2.77
2022-12-27T18:47:07.779Z,3.03
2022-12-27T18:49:40.192Z,3.07
2022-12-27T18:52:22.591Z,4.50
2022-12-27T18:54:53.220Z,5.57
2022-12-27T18:57:39.722Z,4.10
2022-12-27T19:00:32.421Z,4.03
2022-12-27T19:03:21.152Z,3.67
2022-12-27T19:06:09.167Z,3.03
2022-12-27T19:08:46.829Z,3.13
2022-12-27T19:11:23.905Z,2.70
2022-12-27T19:13:57.896Z,2.50
2022-12-27T19:16:31.703Z,2.13
2022-12-27T19:19:13.078Z,2.20
2022-12-27T19:21:43.296Z,2.30
2022-12-27T19:24:34.409Z,2.27
2022-12-27T19:27:19.090Z,2.93
2022-12-27T19:29:54.930Z,2.73
2022-12-27T19:32:34.313Z,2.20
2022-12-27T19:35:08.697Z,2.40
2022-12-27T19:37:38.755Z,4.03
2022-12-27T19:40:16.276Z,2.23
2022-12-27T19:42:46.668Z,5.73
2022-12-27T19:45:18.220Z,3.00
2022-12-27T19:47:49.902Z,2.00
2022-12-27T19:50:25.282Z,2.43
2022-12-27T19:52:55.335Z,3.53
2022-12-27T19:55:29.541Z,3.37
2022-12-27T19:57:59.599Z,2.40
2022-12-27T20:00:29.734Z,2.27
2022-12-27T20:02:59.968Z,2.10
2022-12-27T20:06:13.526Z,2.40
2022-12-27T20:08:28.259Z,2.07
2022-12-27T20:10:59.900Z,1.90
2022-12-27T20:13:30.867Z,2.40
2022-12-27T20:16:02.829Z,1.73
2022-12-27T20:18:32.931Z,1.90
2022-12-27T20:21:05.756Z,2.37
2022-12-27T20:23:35.877Z,2.33
2022-12-27T20:26:06.026Z,2.63
2022-12-27T20:28:36.958Z,2.27
2022-12-27T20:31:10.357Z,2.47
2022-12-27T20:33:40.938Z,2.40
2022-12-27T20:36:15.508Z,2.50
2022-12-27T20:38:45.575Z,2.63
2022-12-27T20:41:20.320Z,2.53
2022-12-27T20:43:50.769Z,2.97
2022-12-27T20:46:22.610Z,2.97
2022-12-27T20:48:53.810Z,2.40
2022-12-27T20:51:31.726Z,2.60
2022-12-27T20:54:05.128Z,2.30
2022-12-27T20:56:36.975Z,2.37
2022-12-27T20:59:07.262Z,2.63
2022-12-27T21:01:38.441Z,2.37
2022-12-27T21:04:09.532Z,2.33
2022-12-27T21:06:42.241Z,2.10
2022-12-27T21:09:12.843Z,2.03
2022-12-27T21:11:42.924Z,1.83
2022-12-27T21:14:15.300Z,2.17
2022-12-27T21:16:45.443Z,2.20
2022-12-27T21:19:16.022Z,1.90
2022-12-27T21:21:48.671Z,1.57
2022-12-27T21:24:20.939Z,1.70
2022-12-27T21:26:56.219Z,1.57
2022-12-27T21:29:26.522Z,1.70
2022-12-27T21:31:56.628Z,2.50
2022-12-27T21:34:26.710Z,2.47
2022-12-27T21:37:01.435Z,2.20
2022-12-27T21:39:33.524Z,3.03
2022-12-27T21:42:04.814Z,2.83
2022-12-27T21:44:37.802Z,1.80
2022-12-27T21:47:08.141Z,2.97
2022-12-27T21:49:40.897Z,2.13
2022-12-27T21:52:13.577Z,2.00
2022-12-27T21:54:43.618Z,2.00
2022-12-27T21:57:13.690Z,2.07
2022-12-27T21:59:43.731Z,1.87
2022-12-27T22:02:18.623Z,2.10
2022-12-27T22:04:48.792Z,2.00
2022-12-27T22:07:21.500Z,1.70
2022-12-27T22:09:51.529Z,7.87
2022-12-27T22:12:21.580Z,3.27
2022-12-27T22:14:51.630Z,3.57
2022-12-27T22:17:21.663Z,1.97
2022-12-27T22:19:51.945Z,3.73
2022-12-27T22:22:24.609Z,3.63
2022-12-27T22:24:54.612Z,3.50
2022-12-27T22:27:24.682Z,2.97
2022-12-27T22:29:54.700Z,3.73
2022-12-27T22:32:26.181Z,7.63
2022-12-27T22:34:56.314Z,7.80
2022-12-27T22:37:29.032Z,5.43
2022-12-27T22:39:59.069Z,3.33
2022-12-27T22:42:29.123Z,3.30
2022-12-27T22:44:59.164Z,4.73
2022-12-27T22:47:29.336Z,3.73
2022-12-27T22:49:59.776Z,3.57
2022-12-27T22:52:32.589Z,3.10
2022-12-27T22:55:04.258Z,3.00
2022-12-27T22:57:37.203Z,3.63
2022-12-27T23:00:15.219Z,3.00
2022-12-27T23:02:45.651Z,2.87
2022-12-27T23:05:19.943Z,3.17
2022-12-27T23:08:05.156Z,2.27
2022-12-27T23:10:38.063Z,2.83
2022-12-27T23:13:08.118Z,2.30
2022-12-27T23:15:38.171Z,2.20
2022-12-27T23:18:08.548Z,2.57
2022-12-27T23:20:38.671Z,2.77
2022-12-27T23:23:31.310Z,2.03
2022-12-27T23:26:09.283Z,2.30
2022-12-27T23:28:40.483Z,1.83
2022-12-27T23:31:15.950Z,2.20
2022-12-27T23:33:47.735Z,2.00
2022-12-27T23:36:18.674Z,2.50
2022-12-27T23:38:53.376Z,2.93
2022-12-27T23:41:28.819Z,2.17
2022-12-27T23:44:04.250Z,2.50
2022-12-27T23:46:37.933Z,2.00
2022-12-27T23:49:11.367Z,3.40
2022-12-27T23:51:41.435Z,2.30
2022-12-27T23:54:14.140Z,3.47
2022-12-27T23:56:44.174Z,3.00
2022-12-27T23:59:16.897Z,2.30
